<?xml version="1.0" encoding="UTF-8" standalone="no" ?>
<gpx xmlns="http://www.topografix.com/GPX/1/1" xmlns:xsi="http://www.w3.org/2001/XMLSchema-instance" xsi:schemaLocation="http://www.topografix.com/GPX/1/1 http://www.topografix.com/GPX/1/1/gpx.xsd" version="1.1" creator="VisuGPX - https://www.visugpx.com">
  <metadata>
    <name>Descente dans le bois au-dessus de St Jean de Vaulx</name>
    <desc><![CDATA[
descente sur Saint-Jean
]]></desc>
  </metadata>
  <trk>
    <name><![CDATA[Descente dans le bois au-dessus de St Jean de Vaulx_1]]></name>
    <desc><![CDATA[descente sur Saint-Jean
]]></desc>
    <trkseg>
      <trkpt lat="45.02031" lon="5.75008">
        <ele>1459.27</ele>
        <time>2017-06-17T07:07:31.358Z</time>
      </trkpt>
      <trkpt lat="45.02029" lon="5.75009">
        <ele>1458.39</ele>
        <time>2017-06-17T07:07:32.347Z</time>
      </trkpt>
      <trkpt lat="45.02027" lon="5.7501">
        <ele>1457.5</ele>
        <time>2017-06-17T07:07:33.318Z</time>
      </trkpt>
      <trkpt lat="45.02025" lon="5.75011">
        <ele>1456.67</ele>
        <time>2017-06-17T07:07:34.345Z</time>
      </trkpt>
      <trkpt lat="45.02023" lon="5.75012">
        <ele>1455.72</ele>
        <time>2017-06-17T07:07:35.334Z</time>
      </trkpt>
      <trkpt lat="45.02021" lon="5.75014">
        <ele>1454.73</ele>
        <time>2017-06-17T07:07:36.334Z</time>
      </trkpt>
      <trkpt lat="45.02019" lon="5.75016">
        <ele>1454.03</ele>
        <time>2017-06-17T07:07:37.341Z</time>
      </trkpt>
      <trkpt lat="45.02016" lon="5.75018">
        <ele>1452.97</ele>
        <time>2017-06-17T07:07:39.330Z</time>
      </trkpt>
      <trkpt lat="45.02013" lon="5.7502">
        <ele>1451.74</ele>
        <time>2017-06-17T07:07:41.328Z</time>
      </trkpt>
      <trkpt lat="45.02009" lon="5.75023">
        <ele>1450.26</ele>
        <time>2017-06-17T07:07:43.340Z</time>
      </trkpt>
      <trkpt lat="45.02007" lon="5.75025">
        <ele>1449.69</ele>
        <time>2017-06-17T07:07:44.650Z</time>
      </trkpt>
      <trkpt lat="45.02005" lon="5.75028">
        <ele>1449.17</ele>
        <time>2017-06-17T07:07:45.320Z</time>
      </trkpt>
      <trkpt lat="45.02004" lon="5.75031">
        <ele>1448.67</ele>
        <time>2017-06-17T07:07:46.317Z</time>
      </trkpt>
      <trkpt lat="45.02002" lon="5.75034">
        <ele>1448.17</ele>
        <time>2017-06-17T07:07:47.320Z</time>
      </trkpt>
      <trkpt lat="45.02002" lon="5.75037">
        <ele>1447.52</ele>
        <time>2017-06-17T07:07:48.320Z</time>
      </trkpt>
      <trkpt lat="45.02001" lon="5.7504">
        <ele>1447.13</ele>
        <time>2017-06-17T07:07:49.309Z</time>
      </trkpt>
      <trkpt lat="45.02001" lon="5.75044">
        <ele>1446.51</ele>
        <time>2017-06-17T07:07:50.309Z</time>
      </trkpt>
      <trkpt lat="45.02" lon="5.75048">
        <ele>1446.05</ele>
        <time>2017-06-17T07:07:51.308Z</time>
      </trkpt>
      <trkpt lat="45.02" lon="5.75052">
        <ele>1445.49</ele>
        <time>2017-06-17T07:07:52.309Z</time>
      </trkpt>
      <trkpt lat="45.02" lon="5.75055">
        <ele>1444.9</ele>
        <time>2017-06-17T07:07:53.309Z</time>
      </trkpt>
      <trkpt lat="45.02" lon="5.75059">
        <ele>1444.07</ele>
        <time>2017-06-17T07:07:54.307Z</time>
      </trkpt>
      <trkpt lat="45.02" lon="5.75063">
        <ele>1443.49</ele>
        <time>2017-06-17T07:07:55.309Z</time>
      </trkpt>
      <trkpt lat="45.02" lon="5.75067">
        <ele>1442.97</ele>
        <time>2017-06-17T07:07:56.306Z</time>
      </trkpt>
      <trkpt lat="45.02001" lon="5.75072">
        <ele>1442.47</ele>
        <time>2017-06-17T07:07:57.307Z</time>
      </trkpt>
      <trkpt lat="45.02002" lon="5.75076">
        <ele>1441.82</ele>
        <time>2017-06-17T07:07:58.315Z</time>
      </trkpt>
      <trkpt lat="45.02003" lon="5.7508">
        <ele>1441.43</ele>
        <time>2017-06-17T07:07:59.316Z</time>
      </trkpt>
      <trkpt lat="45.02003" lon="5.75083">
        <ele>1440.81</ele>
        <time>2017-06-17T07:08:00.656Z</time>
      </trkpt>
      <trkpt lat="45.02004" lon="5.75086">
        <ele>1440.28</ele>
        <time>2017-06-17T07:08:01.765Z</time>
      </trkpt>
      <trkpt lat="45.02004" lon="5.75089">
        <ele>1439.69</ele>
        <time>2017-06-17T07:08:02.505Z</time>
      </trkpt>
      <trkpt lat="45.02004" lon="5.75092">
        <ele>1439.25</ele>
        <time>2017-06-17T07:08:03.505Z</time>
      </trkpt>
      <trkpt lat="45.02004" lon="5.75094">
        <ele>1438.76</ele>
        <time>2017-06-17T07:08:04.504Z</time>
      </trkpt>
      <trkpt lat="45.02003" lon="5.75099">
        <ele>1437.65</ele>
        <time>2017-06-17T07:08:06.503Z</time>
      </trkpt>
      <trkpt lat="45.02003" lon="5.75103">
        <ele>1437.08</ele>
        <time>2017-06-17T07:08:08.503Z</time>
      </trkpt>
      <trkpt lat="45.02002" lon="5.75107">
        <ele>1436.18</ele>
        <time>2017-06-17T07:08:10.501Z</time>
      </trkpt>
      <trkpt lat="45.01999" lon="5.75109">
        <ele>1435.35</ele>
        <time>2017-06-17T07:08:12.583Z</time>
      </trkpt>
      <trkpt lat="45.01997" lon="5.7511">
        <ele>1434.94</ele>
        <time>2017-06-17T07:08:13.594Z</time>
      </trkpt>
      <trkpt lat="45.01995" lon="5.75113">
        <ele>1434.81</ele>
        <time>2017-06-17T07:08:15.593Z</time>
      </trkpt>
      <trkpt lat="45.01992" lon="5.75116">
        <ele>1434.65</ele>
        <time>2017-06-17T07:08:17.603Z</time>
      </trkpt>
      <trkpt lat="45.01991" lon="5.75119">
        <ele>1434.62</ele>
        <time>2017-06-17T07:08:19.586Z</time>
      </trkpt>
      <trkpt lat="45.01992" lon="5.75123">
        <ele>1435.18</ele>
        <time>2017-06-17T07:08:21.584Z</time>
      </trkpt>
      <trkpt lat="45.01994" lon="5.75125">
        <ele>1435.67</ele>
        <time>2017-06-17T07:08:23.595Z</time>
      </trkpt>
      <trkpt lat="45.01997" lon="5.75125">
        <ele>1435.64</ele>
        <time>2017-06-17T07:08:25.576Z</time>
      </trkpt>
      <trkpt lat="45.02" lon="5.75126">
        <ele>1435.58</ele>
        <time>2017-06-17T07:08:27.575Z</time>
      </trkpt>
      <trkpt lat="45.02002" lon="5.75127">
        <ele>1435.6</ele>
        <time>2017-06-17T07:08:28.572Z</time>
      </trkpt>
      <trkpt lat="45.02004" lon="5.75127">
        <ele>1435.67</ele>
        <time>2017-06-17T07:08:29.577Z</time>
      </trkpt>
      <trkpt lat="45.02006" lon="5.75128">
        <ele>1435.84</ele>
        <time>2017-06-17T07:08:30.571Z</time>
      </trkpt>
      <trkpt lat="45.02008" lon="5.75129">
        <ele>1436.11</ele>
        <time>2017-06-17T07:08:31.571Z</time>
      </trkpt>
      <trkpt lat="45.0201" lon="5.7513">
        <ele>1436.48</ele>
        <time>2017-06-17T07:08:32.570Z</time>
      </trkpt>
      <trkpt lat="45.02012" lon="5.75131">
        <ele>1436.94</ele>
        <time>2017-06-17T07:08:33.567Z</time>
      </trkpt>
      <trkpt lat="45.02015" lon="5.75132">
        <ele>1437.02</ele>
        <time>2017-06-17T07:08:35.567Z</time>
      </trkpt>
      <trkpt lat="45.02018" lon="5.75132">
        <ele>1436.48</ele>
        <time>2017-06-17T07:08:37.565Z</time>
      </trkpt>
      <trkpt lat="45.02021" lon="5.75133">
        <ele>1436.4</ele>
        <time>2017-06-17T07:08:39.565Z</time>
      </trkpt>
      <trkpt lat="45.02024" lon="5.75137">
        <ele>1436.42</ele>
        <time>2017-06-17T07:08:41.579Z</time>
      </trkpt>
      <trkpt lat="45.02024" lon="5.7514">
        <ele>1436</ele>
        <time>2017-06-17T07:09:31.303Z</time>
      </trkpt>
      <trkpt lat="45.02024" lon="5.75143">
        <ele>1434.9</ele>
        <time>2017-06-17T07:09:51.937Z</time>
      </trkpt>
      <trkpt lat="45.02026" lon="5.75144">
        <ele>1435.39</ele>
        <time>2017-06-17T07:09:55.264Z</time>
      </trkpt>
      <trkpt lat="45.02028" lon="5.75145">
        <ele>1435.88</ele>
        <time>2017-06-17T07:10:00.326Z</time>
      </trkpt>
      <trkpt lat="45.02031" lon="5.75144">
        <ele>1435.64</ele>
        <time>2017-06-17T07:10:02.324Z</time>
      </trkpt>
      <trkpt lat="45.02034" lon="5.75144">
        <ele>1435.55</ele>
        <time>2017-06-17T07:10:04.324Z</time>
      </trkpt>
      <trkpt lat="45.02037" lon="5.75147">
        <ele>1435.03</ele>
        <time>2017-06-17T07:10:06.325Z</time>
      </trkpt>
      <trkpt lat="45.02039" lon="5.7515">
        <ele>1435.4</ele>
        <time>2017-06-17T07:10:08.325Z</time>
      </trkpt>
      <trkpt lat="45.02039" lon="5.75151">
        <ele>1435.65</ele>
        <time>2017-06-17T07:10:20.208Z</time>
      </trkpt>
      <trkpt lat="45.02041" lon="5.75154">
        <ele>1435.57</ele>
        <time>2017-06-17T07:10:22.755Z</time>
      </trkpt>
      <trkpt lat="45.02043" lon="5.75155">
        <ele>1435.74</ele>
        <time>2017-06-17T07:10:23.388Z</time>
      </trkpt>
      <trkpt lat="45.02045" lon="5.75156">
        <ele>1435.71</ele>
        <time>2017-06-17T07:10:24.387Z</time>
      </trkpt>
      <trkpt lat="45.02047" lon="5.75158">
        <ele>1435.78</ele>
        <time>2017-06-17T07:10:25.324Z</time>
      </trkpt>
      <trkpt lat="45.02049" lon="5.75159">
        <ele>1435.49</ele>
        <time>2017-06-17T07:10:26.325Z</time>
      </trkpt>
      <trkpt lat="45.02051" lon="5.7516">
        <ele>1435.42</ele>
        <time>2017-06-17T07:10:27.653Z</time>
      </trkpt>
      <trkpt lat="45.02054" lon="5.75162">
        <ele>1435.31</ele>
        <time>2017-06-17T07:10:29.914Z</time>
      </trkpt>
      <trkpt lat="45.02056" lon="5.75162">
        <ele>1435.38</ele>
        <time>2017-06-17T07:10:30.341Z</time>
      </trkpt>
      <trkpt lat="45.02057" lon="5.75163">
        <ele>1435.62</ele>
        <time>2017-06-17T07:10:31.340Z</time>
      </trkpt>
      <trkpt lat="45.02059" lon="5.75165">
        <ele>1436.35</ele>
        <time>2017-06-17T07:10:53.463Z</time>
      </trkpt>
      <trkpt lat="45.02061" lon="5.75166">
        <ele>1435.76</ele>
        <time>2017-06-17T07:10:55.441Z</time>
      </trkpt>
      <trkpt lat="45.02063" lon="5.75167">
        <ele>1434.93</ele>
        <time>2017-06-17T07:10:58.462Z</time>
      </trkpt>
      <trkpt lat="45.02065" lon="5.75169">
        <ele>1434.17</ele>
        <time>2017-06-17T07:11:07.513Z</time>
      </trkpt>
      <trkpt lat="45.02067" lon="5.7517">
        <ele>1432.53</ele>
        <time>2017-06-17T07:11:26.312Z</time>
      </trkpt>
      <trkpt lat="45.0207" lon="5.75171">
        <ele>1432.71</ele>
        <time>2017-06-17T07:11:28.312Z</time>
      </trkpt>
      <trkpt lat="45.02073" lon="5.75171">
        <ele>1432.89</ele>
        <time>2017-06-17T07:11:30.305Z</time>
      </trkpt>
      <trkpt lat="45.02074" lon="5.75173">
        <ele>1432.67</ele>
        <time>2017-06-17T07:11:32.515Z</time>
      </trkpt>
      <trkpt lat="45.02076" lon="5.75175">
        <ele>1432.06</ele>
        <time>2017-06-17T07:11:35.510Z</time>
      </trkpt>
      <trkpt lat="45.02078" lon="5.75176">
        <ele>1432.57</ele>
        <time>2017-06-17T07:11:37.627Z</time>
      </trkpt>
      <trkpt lat="45.02082" lon="5.75175">
        <ele>1433.16</ele>
        <time>2017-06-17T07:11:39.454Z</time>
      </trkpt>
      <trkpt lat="45.02085" lon="5.75175">
        <ele>1433.12</ele>
        <time>2017-06-17T07:11:40.629Z</time>
      </trkpt>
      <trkpt lat="45.02087" lon="5.75175">
        <ele>1433.03</ele>
        <time>2017-06-17T07:11:41.515Z</time>
      </trkpt>
      <trkpt lat="45.02089" lon="5.75175">
        <ele>1433.01</ele>
        <time>2017-06-17T07:11:42.519Z</time>
      </trkpt>
      <trkpt lat="45.02091" lon="5.75176">
        <ele>1433.21</ele>
        <time>2017-06-17T07:11:44.521Z</time>
      </trkpt>
      <trkpt lat="45.02094" lon="5.75179">
        <ele>1430.03</ele>
        <time>2017-06-17T07:12:45.993Z</time>
      </trkpt>
      <trkpt lat="45.02094" lon="5.75182">
        <ele>1430.51</ele>
        <time>2017-06-17T07:12:49.622Z</time>
      </trkpt>
      <trkpt lat="45.02092" lon="5.75186">
        <ele>1431.17</ele>
        <time>2017-06-17T07:12:55.915Z</time>
      </trkpt>
      <trkpt lat="45.02089" lon="5.75186">
        <ele>1431.33</ele>
        <time>2017-06-17T07:13:01.417Z</time>
      </trkpt>
      <trkpt lat="45.02087" lon="5.75184">
        <ele>1431.7</ele>
        <time>2017-06-17T07:13:10.946Z</time>
      </trkpt>
      <trkpt lat="45.02081" lon="5.75187">
        <ele>1427.33</ele>
        <time>2017-06-17T07:18:20.639Z</time>
      </trkpt>
      <trkpt lat="45.02079" lon="5.75189">
        <ele>1426.61</ele>
        <time>2017-06-17T07:18:22.148Z</time>
      </trkpt>
      <trkpt lat="45.02077" lon="5.75191">
        <ele>1426.15</ele>
        <time>2017-06-17T07:18:23.646Z</time>
      </trkpt>
      <trkpt lat="45.02075" lon="5.75193">
        <ele>1426.11</ele>
        <time>2017-06-17T07:18:24.276Z</time>
      </trkpt>
      <trkpt lat="45.02073" lon="5.75195">
        <ele>1425.73</ele>
        <time>2017-06-17T07:18:25.293Z</time>
      </trkpt>
      <trkpt lat="45.02071" lon="5.75197">
        <ele>1425.93</ele>
        <time>2017-06-17T07:18:26.292Z</time>
      </trkpt>
      <trkpt lat="45.02068" lon="5.75198">
        <ele>1426.21</ele>
        <time>2017-06-17T07:18:27.297Z</time>
      </trkpt>
      <trkpt lat="45.02065" lon="5.752">
        <ele>1425.9</ele>
        <time>2017-06-17T07:18:28.293Z</time>
      </trkpt>
      <trkpt lat="45.02062" lon="5.75202">
        <ele>1425.6</ele>
        <time>2017-06-17T07:18:29.304Z</time>
      </trkpt>
      <trkpt lat="45.02058" lon="5.75204">
        <ele>1425.15</ele>
        <time>2017-06-17T07:18:30.295Z</time>
      </trkpt>
      <trkpt lat="45.02055" lon="5.75205">
        <ele>1424.74</ele>
        <time>2017-06-17T07:18:31.855Z</time>
      </trkpt>
      <trkpt lat="45.0205" lon="5.75205">
        <ele>1424.41</ele>
        <time>2017-06-17T07:18:32.234Z</time>
      </trkpt>
      <trkpt lat="45.02045" lon="5.75206">
        <ele>1424.1</ele>
        <time>2017-06-17T07:18:33.234Z</time>
      </trkpt>
      <trkpt lat="45.02039" lon="5.75205">
        <ele>1423.8</ele>
        <time>2017-06-17T07:18:34.222Z</time>
      </trkpt>
      <trkpt lat="45.02035" lon="5.75206">
        <ele>1422.9</ele>
        <time>2017-06-17T07:18:35.227Z</time>
      </trkpt>
      <trkpt lat="45.02032" lon="5.75208">
        <ele>1422.53</ele>
        <time>2017-06-17T07:18:36.225Z</time>
      </trkpt>
      <trkpt lat="45.0203" lon="5.75208">
        <ele>1422.06</ele>
        <time>2017-06-17T07:18:37.647Z</time>
      </trkpt>
      <trkpt lat="45.02027" lon="5.75208">
        <ele>1421.64</ele>
        <time>2017-06-17T07:18:38.311Z</time>
      </trkpt>
      <trkpt lat="45.02025" lon="5.75208">
        <ele>1421.53</ele>
        <time>2017-06-17T07:18:39.302Z</time>
      </trkpt>
      <trkpt lat="45.0202" lon="5.75207">
        <ele>1421.06</ele>
        <time>2017-06-17T07:18:40.390Z</time>
      </trkpt>
      <trkpt lat="45.02016" lon="5.75207">
        <ele>1420.56</ele>
        <time>2017-06-17T07:18:41.309Z</time>
      </trkpt>
      <trkpt lat="45.02013" lon="5.75206">
        <ele>1419.69</ele>
        <time>2017-06-17T07:18:42.309Z</time>
      </trkpt>
      <trkpt lat="45.02008" lon="5.75207">
        <ele>1419.1</ele>
        <time>2017-06-17T07:18:43.309Z</time>
      </trkpt>
      <trkpt lat="45.02003" lon="5.75207">
        <ele>1418.12</ele>
        <time>2017-06-17T07:18:44.442Z</time>
      </trkpt>
      <trkpt lat="45.01999" lon="5.75208">
        <ele>1417.28</ele>
        <time>2017-06-17T07:18:45.982Z</time>
      </trkpt>
      <trkpt lat="45.01995" lon="5.75208">
        <ele>1416.92</ele>
        <time>2017-06-17T07:18:46.259Z</time>
      </trkpt>
      <trkpt lat="45.01992" lon="5.75207">
        <ele>1416.68</ele>
        <time>2017-06-17T07:18:47.250Z</time>
      </trkpt>
      <trkpt lat="45.01989" lon="5.75207">
        <ele>1416.55</ele>
        <time>2017-06-17T07:18:48.252Z</time>
      </trkpt>
      <trkpt lat="45.01987" lon="5.75207">
        <ele>1416.44</ele>
        <time>2017-06-17T07:18:49.249Z</time>
      </trkpt>
      <trkpt lat="45.01985" lon="5.75206">
        <ele>1416.33</ele>
        <time>2017-06-17T07:18:50.647Z</time>
      </trkpt>
      <trkpt lat="45.01982" lon="5.75206">
        <ele>1416.23</ele>
        <time>2017-06-17T07:18:51.799Z</time>
      </trkpt>
      <trkpt lat="45.01979" lon="5.75207">
        <ele>1416.13</ele>
        <time>2017-06-17T07:18:52.150Z</time>
      </trkpt>
      <trkpt lat="45.01975" lon="5.75206">
        <ele>1415.88</ele>
        <time>2017-06-17T07:18:53.662Z</time>
      </trkpt>
      <trkpt lat="45.01973" lon="5.75203">
        <ele>1415.67</ele>
        <time>2017-06-17T07:18:54.302Z</time>
      </trkpt>
      <trkpt lat="45.01969" lon="5.75202">
        <ele>1415.32</ele>
        <time>2017-06-17T07:18:55.302Z</time>
      </trkpt>
      <trkpt lat="45.01965" lon="5.752">
        <ele>1414.85</ele>
        <time>2017-06-17T07:18:56.302Z</time>
      </trkpt>
      <trkpt lat="45.01962" lon="5.752">
        <ele>1414.29</ele>
        <time>2017-06-17T07:18:57.303Z</time>
      </trkpt>
      <trkpt lat="45.01958" lon="5.75199">
        <ele>1413.62</ele>
        <time>2017-06-17T07:18:58.301Z</time>
      </trkpt>
      <trkpt lat="45.01955" lon="5.75199">
        <ele>1413.23</ele>
        <time>2017-06-17T07:18:59.302Z</time>
      </trkpt>
      <trkpt lat="45.01952" lon="5.75199">
        <ele>1412.91</ele>
        <time>2017-06-17T07:19:00.303Z</time>
      </trkpt>
      <trkpt lat="45.01949" lon="5.75199">
        <ele>1412.75</ele>
        <time>2017-06-17T07:19:01.308Z</time>
      </trkpt>
      <trkpt lat="45.01945" lon="5.752">
        <ele>1412.11</ele>
        <time>2017-06-17T07:19:02.302Z</time>
      </trkpt>
      <trkpt lat="45.01941" lon="5.752">
        <ele>1411.73</ele>
        <time>2017-06-17T07:19:03.308Z</time>
      </trkpt>
      <trkpt lat="45.01937" lon="5.752">
        <ele>1411.03</ele>
        <time>2017-06-17T07:19:04.293Z</time>
      </trkpt>
      <trkpt lat="45.01933" lon="5.75198">
        <ele>1410.48</ele>
        <time>2017-06-17T07:19:05.651Z</time>
      </trkpt>
      <trkpt lat="45.01929" lon="5.75198">
        <ele>1409.67</ele>
        <time>2017-06-17T07:19:06.206Z</time>
      </trkpt>
      <trkpt lat="45.01925" lon="5.75198">
        <ele>1409.24</ele>
        <time>2017-06-17T07:19:07.202Z</time>
      </trkpt>
      <trkpt lat="45.01922" lon="5.75198">
        <ele>1409.14</ele>
        <time>2017-06-17T07:19:08.202Z</time>
      </trkpt>
      <trkpt lat="45.01918" lon="5.75198">
        <ele>1408.81</ele>
        <time>2017-06-17T07:19:09.201Z</time>
      </trkpt>
      <trkpt lat="45.01915" lon="5.75197">
        <ele>1408.43</ele>
        <time>2017-06-17T07:19:10.202Z</time>
      </trkpt>
      <trkpt lat="45.0191" lon="5.75198">
        <ele>1408.26</ele>
        <time>2017-06-17T07:19:11.202Z</time>
      </trkpt>
      <trkpt lat="45.01905" lon="5.75198">
        <ele>1407.91</ele>
        <time>2017-06-17T07:19:12.202Z</time>
      </trkpt>
      <trkpt lat="45.01901" lon="5.75198">
        <ele>1407.45</ele>
        <time>2017-06-17T07:19:13.205Z</time>
      </trkpt>
      <trkpt lat="45.01897" lon="5.75199">
        <ele>1406.89</ele>
        <time>2017-06-17T07:19:14.203Z</time>
      </trkpt>
      <trkpt lat="45.01892" lon="5.75199">
        <ele>1406.45</ele>
        <time>2017-06-17T07:19:15.199Z</time>
      </trkpt>
      <trkpt lat="45.01888" lon="5.75199">
        <ele>1406.04</ele>
        <time>2017-06-17T07:19:16.650Z</time>
      </trkpt>
      <trkpt lat="45.01882" lon="5.752">
        <ele>1405.41</ele>
        <time>2017-06-17T07:19:17.214Z</time>
      </trkpt>
      <trkpt lat="45.01876" lon="5.752">
        <ele>1403.9</ele>
        <time>2017-06-17T07:19:18.204Z</time>
      </trkpt>
      <trkpt lat="45.0187" lon="5.75199">
        <ele>1402.03</ele>
        <time>2017-06-17T07:19:19.205Z</time>
      </trkpt>
      <trkpt lat="45.01864" lon="5.752">
        <ele>1400.66</ele>
        <time>2017-06-17T07:19:20.204Z</time>
      </trkpt>
      <trkpt lat="45.01861" lon="5.75199">
        <ele>1399.26</ele>
        <time>2017-06-17T07:19:21.206Z</time>
      </trkpt>
      <trkpt lat="45.01856" lon="5.75199">
        <ele>1398.62</ele>
        <time>2017-06-17T07:19:22.210Z</time>
      </trkpt>
      <trkpt lat="45.01852" lon="5.75199">
        <ele>1398.15</ele>
        <time>2017-06-17T07:19:23.206Z</time>
      </trkpt>
      <trkpt lat="45.01847" lon="5.75198">
        <ele>1397.74</ele>
        <time>2017-06-17T07:19:24.219Z</time>
      </trkpt>
      <trkpt lat="45.01843" lon="5.75198">
        <ele>1397.18</ele>
        <time>2017-06-17T07:19:25.211Z</time>
      </trkpt>
      <trkpt lat="45.0184" lon="5.75198">
        <ele>1396.82</ele>
        <time>2017-06-17T07:19:26.212Z</time>
      </trkpt>
      <trkpt lat="45.01838" lon="5.75198">
        <ele>1396.36</ele>
        <time>2017-06-17T07:19:27.217Z</time>
      </trkpt>
      <trkpt lat="45.01834" lon="5.75198">
        <ele>1394.96</ele>
        <time>2017-06-17T07:19:32.214Z</time>
      </trkpt>
      <trkpt lat="45.01835" lon="5.75201">
        <ele>1391.58</ele>
        <time>2017-06-17T07:19:38.208Z</time>
      </trkpt>
      <trkpt lat="45.01837" lon="5.75202">
        <ele>1391.14</ele>
        <time>2017-06-17T07:19:39.878Z</time>
      </trkpt>
      <trkpt lat="45.0184" lon="5.75205">
        <ele>1390.66</ele>
        <time>2017-06-17T07:19:40.157Z</time>
      </trkpt>
      <trkpt lat="45.01841" lon="5.75209">
        <ele>1390.17</ele>
        <time>2017-06-17T07:19:41.651Z</time>
      </trkpt>
      <trkpt lat="45.01844" lon="5.75213">
        <ele>1389.59</ele>
        <time>2017-06-17T07:19:42.788Z</time>
      </trkpt>
      <trkpt lat="45.01848" lon="5.75218">
        <ele>1389.15</ele>
        <time>2017-06-17T07:19:43.446Z</time>
      </trkpt>
      <trkpt lat="45.01853" lon="5.75224">
        <ele>1387.91</ele>
        <time>2017-06-17T07:19:44.689Z</time>
      </trkpt>
      <trkpt lat="45.01858" lon="5.7523">
        <ele>1386.1</ele>
        <time>2017-06-17T07:19:45.601Z</time>
      </trkpt>
      <trkpt lat="45.01863" lon="5.75234">
        <ele>1385.13</ele>
        <time>2017-06-17T07:19:46.600Z</time>
      </trkpt>
      <trkpt lat="45.01864" lon="5.75237">
        <ele>1383.98</ele>
        <time>2017-06-17T07:19:47.989Z</time>
      </trkpt>
      <trkpt lat="45.01866" lon="5.7524">
        <ele>1383.12</ele>
        <time>2017-06-17T07:19:49.556Z</time>
      </trkpt>
      <trkpt lat="45.01868" lon="5.75243">
        <ele>1382.58</ele>
        <time>2017-06-17T07:19:50.553Z</time>
      </trkpt>
      <trkpt lat="45.01871" lon="5.75246">
        <ele>1381.92</ele>
        <time>2017-06-17T07:19:51.560Z</time>
      </trkpt>
      <trkpt lat="45.01874" lon="5.75252">
        <ele>1381.38</ele>
        <time>2017-06-17T07:19:53.222Z</time>
      </trkpt>
      <trkpt lat="45.01878" lon="5.75259">
        <ele>1379.97</ele>
        <time>2017-06-17T07:19:53.508Z</time>
      </trkpt>
      <trkpt lat="45.01881" lon="5.75265">
        <ele>1378.27</ele>
        <time>2017-06-17T07:19:54.504Z</time>
      </trkpt>
      <trkpt lat="45.01884" lon="5.75271">
        <ele>1376.64</ele>
        <time>2017-06-17T07:19:55.498Z</time>
      </trkpt>
      <trkpt lat="45.01887" lon="5.75275">
        <ele>1374.96</ele>
        <time>2017-06-17T07:19:56.503Z</time>
      </trkpt>
      <trkpt lat="45.01889" lon="5.75277">
        <ele>1374.17</ele>
        <time>2017-06-17T07:19:57.500Z</time>
      </trkpt>
      <trkpt lat="45.01889" lon="5.7528">
        <ele>1373</ele>
        <time>2017-06-17T07:19:59.504Z</time>
      </trkpt>
      <trkpt lat="45.01886" lon="5.75283">
        <ele>1372.06</ele>
        <time>2017-06-17T07:20:01.500Z</time>
      </trkpt>
      <trkpt lat="45.01883" lon="5.75283">
        <ele>1371.42</ele>
        <time>2017-06-17T07:20:02.507Z</time>
      </trkpt>
      <trkpt lat="45.01879" lon="5.75284">
        <ele>1370.5</ele>
        <time>2017-06-17T07:20:03.681Z</time>
      </trkpt>
      <trkpt lat="45.01875" lon="5.75285">
        <ele>1369.45</ele>
        <time>2017-06-17T07:20:04.497Z</time>
      </trkpt>
      <trkpt lat="45.0187" lon="5.75287">
        <ele>1368.21</ele>
        <time>2017-06-17T07:20:05.498Z</time>
      </trkpt>
      <trkpt lat="45.01865" lon="5.75287">
        <ele>1366.63</ele>
        <time>2017-06-17T07:20:06.660Z</time>
      </trkpt>
      <trkpt lat="45.0186" lon="5.75288">
        <ele>1365.41</ele>
        <time>2017-06-17T07:20:07.623Z</time>
      </trkpt>
      <trkpt lat="45.01856" lon="5.75288">
        <ele>1364.5</ele>
        <time>2017-06-17T07:20:08.620Z</time>
      </trkpt>
      <trkpt lat="45.01853" lon="5.75287">
        <ele>1363.9</ele>
        <time>2017-06-17T07:20:09.619Z</time>
      </trkpt>
      <trkpt lat="45.01848" lon="5.75287">
        <ele>1363.15</ele>
        <time>2017-06-17T07:20:10.619Z</time>
      </trkpt>
      <trkpt lat="45.01844" lon="5.75287">
        <ele>1362.21</ele>
        <time>2017-06-17T07:20:11.709Z</time>
      </trkpt>
      <trkpt lat="45.01841" lon="5.75288">
        <ele>1361.3</ele>
        <time>2017-06-17T07:20:12.852Z</time>
      </trkpt>
      <trkpt lat="45.01837" lon="5.75288">
        <ele>1360.18</ele>
        <time>2017-06-17T07:20:13.412Z</time>
      </trkpt>
      <trkpt lat="45.01834" lon="5.75288">
        <ele>1359.14</ele>
        <time>2017-06-17T07:20:14.401Z</time>
      </trkpt>
      <trkpt lat="45.0183" lon="5.75286">
        <ele>1358.36</ele>
        <time>2017-06-17T07:20:15.400Z</time>
      </trkpt>
      <trkpt lat="45.01826" lon="5.75283">
        <ele>1357.79</ele>
        <time>2017-06-17T07:20:16.378Z</time>
      </trkpt>
      <trkpt lat="45.01823" lon="5.75281">
        <ele>1357.27</ele>
        <time>2017-06-17T07:20:17.647Z</time>
      </trkpt>
      <trkpt lat="45.01819" lon="5.75278">
        <ele>1356.77</ele>
        <time>2017-06-17T07:20:18.784Z</time>
      </trkpt>
      <trkpt lat="45.01815" lon="5.75276">
        <ele>1356.04</ele>
        <time>2017-06-17T07:20:19.436Z</time>
      </trkpt>
      <trkpt lat="45.01811" lon="5.75276">
        <ele>1355.64</ele>
        <time>2017-06-17T07:20:20.436Z</time>
      </trkpt>
      <trkpt lat="45.01807" lon="5.75278">
        <ele>1355.38</ele>
        <time>2017-06-17T07:20:21.444Z</time>
      </trkpt>
      <trkpt lat="45.01803" lon="5.7528">
        <ele>1355.1</ele>
        <time>2017-06-17T07:20:22.429Z</time>
      </trkpt>
      <trkpt lat="45.01799" lon="5.75282">
        <ele>1354.72</ele>
        <time>2017-06-17T07:20:23.439Z</time>
      </trkpt>
      <trkpt lat="45.01795" lon="5.75285">
        <ele>1354.33</ele>
        <time>2017-06-17T07:20:24.429Z</time>
      </trkpt>
      <trkpt lat="45.01791" lon="5.75289">
        <ele>1353.78</ele>
        <time>2017-06-17T07:20:25.439Z</time>
      </trkpt>
      <trkpt lat="45.01789" lon="5.75293">
        <ele>1353.2</ele>
        <time>2017-06-17T07:20:26.427Z</time>
      </trkpt>
      <trkpt lat="45.01786" lon="5.75296">
        <ele>1352.6</ele>
        <time>2017-06-17T07:20:27.425Z</time>
      </trkpt>
      <trkpt lat="45.01785" lon="5.75298">
        <ele>1351.92</ele>
        <time>2017-06-17T07:20:28.651Z</time>
      </trkpt>
      <trkpt lat="45.01783" lon="5.75301">
        <ele>1351.38</ele>
        <time>2017-06-17T07:20:29.784Z</time>
      </trkpt>
      <trkpt lat="45.0178" lon="5.75305">
        <ele>1350.95</ele>
        <time>2017-06-17T07:20:30.336Z</time>
      </trkpt>
      <trkpt lat="45.01778" lon="5.75307">
        <ele>1350.31</ele>
        <time>2017-06-17T07:20:31.335Z</time>
      </trkpt>
      <trkpt lat="45.01778" lon="5.7531">
        <ele>1348.16</ele>
        <time>2017-06-17T07:20:34.735Z</time>
      </trkpt>
      <trkpt lat="45.01779" lon="5.75308">
        <ele>1344.98</ele>
        <time>2017-06-17T07:20:38.547Z</time>
      </trkpt>
      <trkpt lat="45.01781" lon="5.75306">
        <ele>1344.32</ele>
        <time>2017-06-17T07:20:39.546Z</time>
      </trkpt>
      <trkpt lat="45.01783" lon="5.75306">
        <ele>1343.63</ele>
        <time>2017-06-17T07:20:40.646Z</time>
      </trkpt>
      <trkpt lat="45.01785" lon="5.75305">
        <ele>1341.99</ele>
        <time>2017-06-17T07:20:42.440Z</time>
      </trkpt>
      <trkpt lat="45.01785" lon="5.75308">
        <ele>1340.27</ele>
        <time>2017-06-17T07:20:44.438Z</time>
      </trkpt>
      <trkpt lat="45.01784" lon="5.75313">
        <ele>1338.91</ele>
        <time>2017-06-17T07:20:46.643Z</time>
      </trkpt>
      <trkpt lat="45.01783" lon="5.75315">
        <ele>1338.38</ele>
        <time>2017-06-17T07:20:47.303Z</time>
      </trkpt>
      <trkpt lat="45.01781" lon="5.75318">
        <ele>1337.79</ele>
        <time>2017-06-17T07:20:48.309Z</time>
      </trkpt>
      <trkpt lat="45.01779" lon="5.75322">
        <ele>1337.27</ele>
        <time>2017-06-17T07:20:49.309Z</time>
      </trkpt>
      <trkpt lat="45.01776" lon="5.75325">
        <ele>1336.69</ele>
        <time>2017-06-17T07:20:50.307Z</time>
      </trkpt>
      <trkpt lat="45.01774" lon="5.75329">
        <ele>1336.17</ele>
        <time>2017-06-17T07:20:51.304Z</time>
      </trkpt>
      <trkpt lat="45.01772" lon="5.75333">
        <ele>1335.74</ele>
        <time>2017-06-17T07:20:52.644Z</time>
      </trkpt>
      <trkpt lat="45.0177" lon="5.75337">
        <ele>1335.19</ele>
        <time>2017-06-17T07:20:53.302Z</time>
      </trkpt>
      <trkpt lat="45.01768" lon="5.7534">
        <ele>1334.52</ele>
        <time>2017-06-17T07:20:54.310Z</time>
      </trkpt>
      <trkpt lat="45.01766" lon="5.75342">
        <ele>1333.76</ele>
        <time>2017-06-17T07:20:55.304Z</time>
      </trkpt>
      <trkpt lat="45.01762" lon="5.75345">
        <ele>1332.89</ele>
        <time>2017-06-17T07:20:56.302Z</time>
      </trkpt>
      <trkpt lat="45.0176" lon="5.75346">
        <ele>1331.92</ele>
        <time>2017-06-17T07:20:57.653Z</time>
      </trkpt>
      <trkpt lat="45.01758" lon="5.75348">
        <ele>1330.93</ele>
        <time>2017-06-17T07:20:58.313Z</time>
      </trkpt>
      <trkpt lat="45.01754" lon="5.75352">
        <ele>1330.23</ele>
        <time>2017-06-17T07:20:59.307Z</time>
      </trkpt>
      <trkpt lat="45.01751" lon="5.75354">
        <ele>1329.16</ele>
        <time>2017-06-17T07:21:00.315Z</time>
      </trkpt>
      <trkpt lat="45.01748" lon="5.75356">
        <ele>1327.99</ele>
        <time>2017-06-17T07:21:01.645Z</time>
      </trkpt>
      <trkpt lat="45.01745" lon="5.75359">
        <ele>1326.87</ele>
        <time>2017-06-17T07:21:02.607Z</time>
      </trkpt>
      <trkpt lat="45.01743" lon="5.75362">
        <ele>1325.62</ele>
        <time>2017-06-17T07:21:03.992Z</time>
      </trkpt>
      <trkpt lat="45.0174" lon="5.75364">
        <ele>1324.4</ele>
        <time>2017-06-17T07:21:04.606Z</time>
      </trkpt>
      <trkpt lat="45.01737" lon="5.75367">
        <ele>1323.13</ele>
        <time>2017-06-17T07:21:05.598Z</time>
      </trkpt>
      <trkpt lat="45.01734" lon="5.7537">
        <ele>1321.83</ele>
        <time>2017-06-17T07:21:06.602Z</time>
      </trkpt>
      <trkpt lat="45.0173" lon="5.75373">
        <ele>1320.38</ele>
        <time>2017-06-17T07:21:07.628Z</time>
      </trkpt>
      <trkpt lat="45.01726" lon="5.75376">
        <ele>1319.35</ele>
        <time>2017-06-17T07:21:08.312Z</time>
      </trkpt>
      <trkpt lat="45.01723" lon="5.75379">
        <ele>1318.34</ele>
        <time>2017-06-17T07:21:09.628Z</time>
      </trkpt>
      <trkpt lat="45.01719" lon="5.75382">
        <ele>1317.11</ele>
        <time>2017-06-17T07:21:10.310Z</time>
      </trkpt>
      <trkpt lat="45.01714" lon="5.75385">
        <ele>1315.98</ele>
        <time>2017-06-17T07:21:11.642Z</time>
      </trkpt>
      <trkpt lat="45.01711" lon="5.75387">
        <ele>1315.02</ele>
        <time>2017-06-17T07:21:12.604Z</time>
      </trkpt>
      <trkpt lat="45.01707" lon="5.75389">
        <ele>1313.95</ele>
        <time>2017-06-17T07:21:13.605Z</time>
      </trkpt>
      <trkpt lat="45.01703" lon="5.75392">
        <ele>1312.86</ele>
        <time>2017-06-17T07:21:14.602Z</time>
      </trkpt>
      <trkpt lat="45.01698" lon="5.75394">
        <ele>1311.77</ele>
        <time>2017-06-17T07:21:15.627Z</time>
      </trkpt>
      <trkpt lat="45.01695" lon="5.75396">
        <ele>1310.67</ele>
        <time>2017-06-17T07:21:16.304Z</time>
      </trkpt>
      <trkpt lat="45.01691" lon="5.75398">
        <ele>1309.42</ele>
        <time>2017-06-17T07:21:17.630Z</time>
      </trkpt>
      <trkpt lat="45.01688" lon="5.75399">
        <ele>1308.35</ele>
        <time>2017-06-17T07:21:18.785Z</time>
      </trkpt>
      <trkpt lat="45.01685" lon="5.754">
        <ele>1307.26</ele>
        <time>2017-06-17T07:21:19.446Z</time>
      </trkpt>
      <trkpt lat="45.01682" lon="5.75402">
        <ele>1306.32</ele>
        <time>2017-06-17T07:21:20.464Z</time>
      </trkpt>
      <trkpt lat="45.01678" lon="5.75404">
        <ele>1305.18</ele>
        <time>2017-06-17T07:21:21.635Z</time>
      </trkpt>
      <trkpt lat="45.01675" lon="5.75406">
        <ele>1303.62</ele>
        <time>2017-06-17T07:21:22.602Z</time>
      </trkpt>
      <trkpt lat="45.01672" lon="5.75408">
        <ele>1302.4</ele>
        <time>2017-06-17T07:21:23.603Z</time>
      </trkpt>
      <trkpt lat="45.01669" lon="5.75411">
        <ele>1300.98</ele>
        <time>2017-06-17T07:21:24.612Z</time>
      </trkpt>
      <trkpt lat="45.01667" lon="5.75414">
        <ele>1299.34</ele>
        <time>2017-06-17T07:21:25.613Z</time>
      </trkpt>
      <trkpt lat="45.01664" lon="5.75416">
        <ele>1297.74</ele>
        <time>2017-06-17T07:21:26.625Z</time>
      </trkpt>
      <trkpt lat="45.01662" lon="5.75417">
        <ele>1296.28</ele>
        <time>2017-06-17T07:21:27.606Z</time>
      </trkpt>
      <trkpt lat="45.01659" lon="5.75418">
        <ele>1294.72</ele>
        <time>2017-06-17T07:21:28.831Z</time>
      </trkpt>
      <trkpt lat="45.01657" lon="5.75419">
        <ele>1293.13</ele>
        <time>2017-06-17T07:21:29.512Z</time>
      </trkpt>
      <trkpt lat="45.01655" lon="5.75421">
        <ele>1291.91</ele>
        <time>2017-06-17T07:21:30.623Z</time>
      </trkpt>
      <trkpt lat="45.01653" lon="5.75422">
        <ele>1290.48</ele>
        <time>2017-06-17T07:21:31.786Z</time>
      </trkpt>
      <trkpt lat="45.01651" lon="5.75423">
        <ele>1288.92</ele>
        <time>2017-06-17T07:21:32.253Z</time>
      </trkpt>
      <trkpt lat="45.01648" lon="5.75425">
        <ele>1287.4</ele>
        <time>2017-06-17T07:21:33.251Z</time>
      </trkpt>
      <trkpt lat="45.01646" lon="5.75426">
        <ele>1285.53</ele>
        <time>2017-06-17T07:21:34.361Z</time>
      </trkpt>
      <trkpt lat="45.01643" lon="5.75427">
        <ele>1283.71</ele>
        <time>2017-06-17T07:21:35.379Z</time>
      </trkpt>
      <trkpt lat="45.0164" lon="5.75429">
        <ele>1282.13</ele>
        <time>2017-06-17T07:21:36.381Z</time>
      </trkpt>
      <trkpt lat="45.01638" lon="5.75431">
        <ele>1280.76</ele>
        <time>2017-06-17T07:21:37.339Z</time>
      </trkpt>
      <trkpt lat="45.01635" lon="5.75432">
        <ele>1279.36</ele>
        <time>2017-06-17T07:21:38.631Z</time>
      </trkpt>
      <trkpt lat="45.01634" lon="5.75433">
        <ele>1278.12</ele>
        <time>2017-06-17T07:21:39.809Z</time>
      </trkpt>
      <trkpt lat="45.01631" lon="5.75433">
        <ele>1276.38</ele>
        <time>2017-06-17T07:21:40.309Z</time>
      </trkpt>
      <trkpt lat="45.01629" lon="5.75434">
        <ele>1274.97</ele>
        <time>2017-06-17T07:21:41.312Z</time>
      </trkpt>
      <trkpt lat="45.01626" lon="5.75435">
        <ele>1273.42</ele>
        <time>2017-06-17T07:21:42.628Z</time>
      </trkpt>
      <trkpt lat="45.01623" lon="5.75436">
        <ele>1272.13</ele>
        <time>2017-06-17T07:21:43.807Z</time>
      </trkpt>
      <trkpt lat="45.0162" lon="5.75437">
        <ele>1270.91</ele>
        <time>2017-06-17T07:21:44.305Z</time>
      </trkpt>
      <trkpt lat="45.01617" lon="5.75439">
        <ele>1270</ele>
        <time>2017-06-17T07:21:45.310Z</time>
      </trkpt>
      <trkpt lat="45.01613" lon="5.75441">
        <ele>1269.18</ele>
        <time>2017-06-17T07:21:46.309Z</time>
      </trkpt>
      <trkpt lat="45.01611" lon="5.75442">
        <ele>1268.14</ele>
        <time>2017-06-17T07:21:47.306Z</time>
      </trkpt>
      <trkpt lat="45.0161" lon="5.7544">
        <ele>1260.4</ele>
        <time>2017-06-17T07:22:25.842Z</time>
      </trkpt>
      <trkpt lat="45.01607" lon="5.75439">
        <ele>1252.37</ele>
        <time>2017-06-17T07:22:34.674Z</time>
      </trkpt>
      <trkpt lat="45.01605" lon="5.7544">
        <ele>1249.17</ele>
        <time>2017-06-17T07:22:38.570Z</time>
      </trkpt>
      <trkpt lat="45.01604" lon="5.75438">
        <ele>1245.97</ele>
        <time>2017-06-17T07:22:41.572Z</time>
      </trkpt>
      <trkpt lat="45.01604" lon="5.75438">
        <ele>1243.82</ele>
        <time>2017-06-17T07:24:26.335Z</time>
      </trkpt>
      <trkpt lat="45.01602" lon="5.7544">
        <ele>1240.38</ele>
        <time>2017-06-17T07:24:32.331Z</time>
      </trkpt>
      <trkpt lat="45.01599" lon="5.75442">
        <ele>1239.11</ele>
        <time>2017-06-17T07:24:34.329Z</time>
      </trkpt>
      <trkpt lat="45.01597" lon="5.75444">
        <ele>1238.09</ele>
        <time>2017-06-17T07:24:36.330Z</time>
      </trkpt>
      <trkpt lat="45.01595" lon="5.75445">
        <ele>1237.57</ele>
        <time>2017-06-17T07:24:37.331Z</time>
      </trkpt>
      <trkpt lat="45.01593" lon="5.75448">
        <ele>1237.22</ele>
        <time>2017-06-17T07:24:38.329Z</time>
      </trkpt>
      <trkpt lat="45.01591" lon="5.7545">
        <ele>1236.53</ele>
        <time>2017-06-17T07:24:39.334Z</time>
      </trkpt>
      <trkpt lat="45.01589" lon="5.75453">
        <ele>1235.76</ele>
        <time>2017-06-17T07:24:40.338Z</time>
      </trkpt>
      <trkpt lat="45.01585" lon="5.75455">
        <ele>1234.89</ele>
        <time>2017-06-17T07:24:41.330Z</time>
      </trkpt>
      <trkpt lat="45.01582" lon="5.7546">
        <ele>1234.3</ele>
        <time>2017-06-17T07:24:42.335Z</time>
      </trkpt>
      <trkpt lat="45.01579" lon="5.75464">
        <ele>1233.7</ele>
        <time>2017-06-17T07:24:43.339Z</time>
      </trkpt>
      <trkpt lat="45.01575" lon="5.75469">
        <ele>1232.35</ele>
        <time>2017-06-17T07:24:44.328Z</time>
      </trkpt>
      <trkpt lat="45.01573" lon="5.75473">
        <ele>1231.79</ele>
        <time>2017-06-17T07:24:45.331Z</time>
      </trkpt>
      <trkpt lat="45.01569" lon="5.75476">
        <ele>1230.07</ele>
        <time>2017-06-17T07:24:46.328Z</time>
      </trkpt>
      <trkpt lat="45.01566" lon="5.75477">
        <ele>1228.07</ele>
        <time>2017-06-17T07:24:47.334Z</time>
      </trkpt>
      <trkpt lat="45.01562" lon="5.75479">
        <ele>1226.97</ele>
        <time>2017-06-17T07:24:48.329Z</time>
      </trkpt>
      <trkpt lat="45.01558" lon="5.75481">
        <ele>1225.12</ele>
        <time>2017-06-17T07:24:49.338Z</time>
      </trkpt>
      <trkpt lat="45.01554" lon="5.75483">
        <ele>1223.15</ele>
        <time>2017-06-17T07:24:50.346Z</time>
      </trkpt>
      <trkpt lat="45.01551" lon="5.75486">
        <ele>1221.69</ele>
        <time>2017-06-17T07:24:51.333Z</time>
      </trkpt>
      <trkpt lat="45.01547" lon="5.75487">
        <ele>1219.52</ele>
        <time>2017-06-17T07:24:52.328Z</time>
      </trkpt>
      <trkpt lat="45.01545" lon="5.75489">
        <ele>1217.78</ele>
        <time>2017-06-17T07:24:53.331Z</time>
      </trkpt>
      <trkpt lat="45.01543" lon="5.75491">
        <ele>1216.97</ele>
        <time>2017-06-17T07:24:54.332Z</time>
      </trkpt>
      <trkpt lat="45.0154" lon="5.75492">
        <ele>1216.39</ele>
        <time>2017-06-17T07:24:55.330Z</time>
      </trkpt>
      <trkpt lat="45.01538" lon="5.75493">
        <ele>1215.87</ele>
        <time>2017-06-17T07:24:56.333Z</time>
      </trkpt>
      <trkpt lat="45.01537" lon="5.75495">
        <ele>1215.52</ele>
        <time>2017-06-17T07:24:57.329Z</time>
      </trkpt>
      <trkpt lat="45.01534" lon="5.75495">
        <ele>1214.32</ele>
        <time>2017-06-17T07:25:57.196Z</time>
      </trkpt>
      <trkpt lat="45.01532" lon="5.75495">
        <ele>1213.16</ele>
        <time>2017-06-17T07:25:59.203Z</time>
      </trkpt>
      <trkpt lat="45.01529" lon="5.75496">
        <ele>1212.18</ele>
        <time>2017-06-17T07:26:01.200Z</time>
      </trkpt>
      <trkpt lat="45.01526" lon="5.75497">
        <ele>1208.65</ele>
        <time>2017-06-17T07:28:27.200Z</time>
      </trkpt>
      <trkpt lat="45.01522" lon="5.75498">
        <ele>1208.01</ele>
        <time>2017-06-17T07:28:28.199Z</time>
      </trkpt>
      <trkpt lat="45.01518" lon="5.755">
        <ele>1208.15</ele>
        <time>2017-06-17T07:28:29.192Z</time>
      </trkpt>
      <trkpt lat="45.01513" lon="5.75502">
        <ele>1208.41</ele>
        <time>2017-06-17T07:28:30.864Z</time>
      </trkpt>
      <trkpt lat="45.0151" lon="5.75504">
        <ele>1208.4</ele>
        <time>2017-06-17T07:28:31.144Z</time>
      </trkpt>
      <trkpt lat="45.01507" lon="5.75506">
        <ele>1208.18</ele>
        <time>2017-06-17T07:28:32.144Z</time>
      </trkpt>
      <trkpt lat="45.01503" lon="5.75508">
        <ele>1208.04</ele>
        <time>2017-06-17T07:28:33.144Z</time>
      </trkpt>
      <trkpt lat="45.01498" lon="5.75509">
        <ele>1207.71</ele>
        <time>2017-06-17T07:28:34.142Z</time>
      </trkpt>
      <trkpt lat="45.01494" lon="5.75512">
        <ele>1207.25</ele>
        <time>2017-06-17T07:28:35.139Z</time>
      </trkpt>
      <trkpt lat="45.01491" lon="5.75514">
        <ele>1206.76</ele>
        <time>2017-06-17T07:28:36.148Z</time>
      </trkpt>
      <trkpt lat="45.01487" lon="5.75516">
        <ele>1206.49</ele>
        <time>2017-06-17T07:28:37.144Z</time>
      </trkpt>
      <trkpt lat="45.01484" lon="5.75518">
        <ele>1206.12</ele>
        <time>2017-06-17T07:28:38.139Z</time>
      </trkpt>
      <trkpt lat="45.0148" lon="5.75522">
        <ele>1205.73</ele>
        <time>2017-06-17T07:28:39.139Z</time>
      </trkpt>
      <trkpt lat="45.01475" lon="5.75525">
        <ele>1205.18</ele>
        <time>2017-06-17T07:28:40.133Z</time>
      </trkpt>
      <trkpt lat="45.01471" lon="5.75527">
        <ele>1204.67</ele>
        <time>2017-06-17T07:28:41.131Z</time>
      </trkpt>
      <trkpt lat="45.01468" lon="5.7553">
        <ele>1204.17</ele>
        <time>2017-06-17T07:28:42.132Z</time>
      </trkpt>
      <trkpt lat="45.01464" lon="5.75532">
        <ele>1203.82</ele>
        <time>2017-06-17T07:28:43.653Z</time>
      </trkpt>
      <trkpt lat="45.01461" lon="5.75534">
        <ele>1203.43</ele>
        <time>2017-06-17T07:28:44.216Z</time>
      </trkpt>
      <trkpt lat="45.01459" lon="5.75535">
        <ele>1203.03</ele>
        <time>2017-06-17T07:28:45.207Z</time>
      </trkpt>
      <trkpt lat="45.01457" lon="5.75537">
        <ele>1202.48</ele>
        <time>2017-06-17T07:28:46.201Z</time>
      </trkpt>
      <trkpt lat="45.01454" lon="5.75539">
        <ele>1202.14</ele>
        <time>2017-06-17T07:28:48.207Z</time>
      </trkpt>
      <trkpt lat="45.01453" lon="5.7554">
        <ele>1201.77</ele>
        <time>2017-06-17T07:28:50.190Z</time>
      </trkpt>
      <trkpt lat="45.0145" lon="5.75542">
        <ele>1201.34</ele>
        <time>2017-06-17T07:28:51.650Z</time>
      </trkpt>
      <trkpt lat="45.01446" lon="5.75543">
        <ele>1200.71</ele>
        <time>2017-06-17T07:28:52.207Z</time>
      </trkpt>
      <trkpt lat="45.01443" lon="5.75543">
        <ele>1199.95</ele>
        <time>2017-06-17T07:28:53.206Z</time>
      </trkpt>
      <trkpt lat="45.01439" lon="5.75545">
        <ele>1199.24</ele>
        <time>2017-06-17T07:28:54.208Z</time>
      </trkpt>
      <trkpt lat="45.01436" lon="5.75546">
        <ele>1198.61</ele>
        <time>2017-06-17T07:28:55.208Z</time>
      </trkpt>
      <trkpt lat="45.01432" lon="5.75548">
        <ele>1198</ele>
        <time>2017-06-17T07:28:56.209Z</time>
      </trkpt>
      <trkpt lat="45.01429" lon="5.7555">
        <ele>1197.48</ele>
        <time>2017-06-17T07:28:57.201Z</time>
      </trkpt>
      <trkpt lat="45.01425" lon="5.75552">
        <ele>1197.12</ele>
        <time>2017-06-17T07:28:58.868Z</time>
      </trkpt>
      <trkpt lat="45.01422" lon="5.75553">
        <ele>1196.73</ele>
        <time>2017-06-17T07:28:59.147Z</time>
      </trkpt>
      <trkpt lat="45.01419" lon="5.75555">
        <ele>1196.33</ele>
        <time>2017-06-17T07:29:00.088Z</time>
      </trkpt>
      <trkpt lat="45.01415" lon="5.75557">
        <ele>1195.46</ele>
        <time>2017-06-17T07:29:02.213Z</time>
      </trkpt>
      <trkpt lat="45.01413" lon="5.75557">
        <ele>1194.51</ele>
        <time>2017-06-17T07:29:03.207Z</time>
      </trkpt>
      <trkpt lat="45.01411" lon="5.75559">
        <ele>1193.6</ele>
        <time>2017-06-17T07:29:04.210Z</time>
      </trkpt>
      <trkpt lat="45.01409" lon="5.75558">
        <ele>1192.85</ele>
        <time>2017-06-17T07:29:05.202Z</time>
      </trkpt>
      <trkpt lat="45.01406" lon="5.75559">
        <ele>1192.29</ele>
        <time>2017-06-17T07:29:06.203Z</time>
      </trkpt>
      <trkpt lat="45.01403" lon="5.75559">
        <ele>1191.62</ele>
        <time>2017-06-17T07:29:07.198Z</time>
      </trkpt>
      <trkpt lat="45.014" lon="5.75559">
        <ele>1190.78</ele>
        <time>2017-06-17T07:29:08.867Z</time>
      </trkpt>
      <trkpt lat="45.01398" lon="5.75558">
        <ele>1189.82</ele>
        <time>2017-06-17T07:29:09.146Z</time>
      </trkpt>
      <trkpt lat="45.01395" lon="5.75558">
        <ele>1188.98</ele>
        <time>2017-06-17T07:29:10.092Z</time>
      </trkpt>
      <trkpt lat="45.01393" lon="5.75558">
        <ele>1187.94</ele>
        <time>2017-06-17T07:29:11.651Z</time>
      </trkpt>
      <trkpt lat="45.01391" lon="5.75557">
        <ele>1187.09</ele>
        <time>2017-06-17T07:29:12.870Z</time>
      </trkpt>
      <trkpt lat="45.01389" lon="5.75557">
        <ele>1186.42</ele>
        <time>2017-06-17T07:29:13.332Z</time>
      </trkpt>
      <trkpt lat="45.01386" lon="5.75556">
        <ele>1186.03</ele>
        <time>2017-06-17T07:29:14.319Z</time>
      </trkpt>
      <trkpt lat="45.01383" lon="5.75555">
        <ele>1185.63</ele>
        <time>2017-06-17T07:29:15.333Z</time>
      </trkpt>
      <trkpt lat="45.01381" lon="5.75554">
        <ele>1185.31</ele>
        <time>2017-06-17T07:29:16.325Z</time>
      </trkpt>
      <trkpt lat="45.01378" lon="5.75554">
        <ele>1184.55</ele>
        <time>2017-06-17T07:29:17.327Z</time>
      </trkpt>
      <trkpt lat="45.01375" lon="5.75554">
        <ele>1184.06</ele>
        <time>2017-06-17T07:29:18.326Z</time>
      </trkpt>
      <trkpt lat="45.01371" lon="5.75555">
        <ele>1183.94</ele>
        <time>2017-06-17T07:29:19.332Z</time>
      </trkpt>
      <trkpt lat="45.01368" lon="5.75555">
        <ele>1183.39</ele>
        <time>2017-06-17T07:29:20.326Z</time>
      </trkpt>
      <trkpt lat="45.01365" lon="5.75554">
        <ele>1182.8</ele>
        <time>2017-06-17T07:29:21.326Z</time>
      </trkpt>
      <trkpt lat="45.01362" lon="5.75553">
        <ele>1182.42</ele>
        <time>2017-06-17T07:29:22.325Z</time>
      </trkpt>
      <trkpt lat="45.01358" lon="5.75554">
        <ele>1182.11</ele>
        <time>2017-06-17T07:29:23.977Z</time>
      </trkpt>
      <trkpt lat="45.01354" lon="5.75554">
        <ele>1181.8</ele>
        <time>2017-06-17T07:29:24.323Z</time>
      </trkpt>
      <trkpt lat="45.01349" lon="5.75555">
        <ele>1181.35</ele>
        <time>2017-06-17T07:29:25.326Z</time>
      </trkpt>
      <trkpt lat="45.01344" lon="5.75555">
        <ele>1180.71</ele>
        <time>2017-06-17T07:29:26.324Z</time>
      </trkpt>
      <trkpt lat="45.01341" lon="5.75556">
        <ele>1180.03</ele>
        <time>2017-06-17T07:29:27.324Z</time>
      </trkpt>
      <trkpt lat="45.01337" lon="5.75556">
        <ele>1179.63</ele>
        <time>2017-06-17T07:29:28.324Z</time>
      </trkpt>
      <trkpt lat="45.01334" lon="5.75555">
        <ele>1179.01</ele>
        <time>2017-06-17T07:29:29.904Z</time>
      </trkpt>
      <trkpt lat="45.0133" lon="5.75554">
        <ele>1178.63</ele>
        <time>2017-06-17T07:29:30.264Z</time>
      </trkpt>
      <trkpt lat="45.01326" lon="5.75555">
        <ele>1178.38</ele>
        <time>2017-06-17T07:29:31.646Z</time>
      </trkpt>
      <trkpt lat="45.01324" lon="5.75554">
        <ele>1178.55</ele>
        <time>2017-06-17T07:29:32.405Z</time>
      </trkpt>
      <trkpt lat="45.01321" lon="5.75553">
        <ele>1178.51</ele>
        <time>2017-06-17T07:29:33.410Z</time>
      </trkpt>
      <trkpt lat="45.01318" lon="5.75551">
        <ele>1178.43</ele>
        <time>2017-06-17T07:29:34.408Z</time>
      </trkpt>
      <trkpt lat="45.01313" lon="5.7555">
        <ele>1178.33</ele>
        <time>2017-06-17T07:29:35.408Z</time>
      </trkpt>
      <trkpt lat="45.01309" lon="5.75548">
        <ele>1178.16</ele>
        <time>2017-06-17T07:29:36.396Z</time>
      </trkpt>
      <trkpt lat="45.01306" lon="5.75546">
        <ele>1178.04</ele>
        <time>2017-06-17T07:29:37.395Z</time>
      </trkpt>
      <trkpt lat="45.01302" lon="5.75544">
        <ele>1177.71</ele>
        <time>2017-06-17T07:29:38.653Z</time>
      </trkpt>
      <trkpt lat="45.01298" lon="5.75544">
        <ele>1177.48</ele>
        <time>2017-06-17T07:29:39.501Z</time>
      </trkpt>
      <trkpt lat="45.01294" lon="5.75542">
        <ele>1177.42</ele>
        <time>2017-06-17T07:29:40.647Z</time>
      </trkpt>
      <trkpt lat="45.0129" lon="5.7554">
        <ele>1177.33</ele>
        <time>2017-06-17T07:29:41.306Z</time>
      </trkpt>
      <trkpt lat="45.01286" lon="5.75537">
        <ele>1177.23</ele>
        <time>2017-06-17T07:29:42.654Z</time>
      </trkpt>
      <trkpt lat="45.01282" lon="5.75536">
        <ele>1177.28</ele>
        <time>2017-06-17T07:29:43.209Z</time>
      </trkpt>
      <trkpt lat="45.01278" lon="5.75535">
        <ele>1177.22</ele>
        <time>2017-06-17T07:29:44.649Z</time>
      </trkpt>
      <trkpt lat="45.01271" lon="5.75534">
        <ele>1177.13</ele>
        <time>2017-06-17T07:29:45.211Z</time>
      </trkpt>
      <trkpt lat="45.01265" lon="5.75532">
        <ele>1176.36</ele>
        <time>2017-06-17T07:29:46.666Z</time>
      </trkpt>
      <trkpt lat="45.01261" lon="5.75531">
        <ele>1175.64</ele>
        <time>2017-06-17T07:29:47.236Z</time>
      </trkpt>
      <trkpt lat="45.01257" lon="5.75529">
        <ele>1174.56</ele>
        <time>2017-06-17T07:29:48.234Z</time>
      </trkpt>
      <trkpt lat="45.01253" lon="5.75528">
        <ele>1174.14</ele>
        <time>2017-06-17T07:29:49.175Z</time>
      </trkpt>
      <trkpt lat="45.01247" lon="5.75528">
        <ele>1174.18</ele>
        <time>2017-06-17T07:29:50.651Z</time>
      </trkpt>
      <trkpt lat="45.01243" lon="5.75526">
        <ele>1174.12</ele>
        <time>2017-06-17T07:29:51.298Z</time>
      </trkpt>
      <trkpt lat="45.01238" lon="5.75526">
        <ele>1173.66</ele>
        <time>2017-06-17T07:29:52.297Z</time>
      </trkpt>
      <trkpt lat="45.01235" lon="5.75527">
        <ele>1173.69</ele>
        <time>2017-06-17T07:29:53.298Z</time>
      </trkpt>
      <trkpt lat="45.01231" lon="5.75526">
        <ele>1173.7</ele>
        <time>2017-06-17T07:29:54.296Z</time>
      </trkpt>
      <trkpt lat="45.01227" lon="5.75524">
        <ele>1173.55</ele>
        <time>2017-06-17T07:29:55.765Z</time>
      </trkpt>
      <trkpt lat="45.01222" lon="5.75523">
        <ele>1173.21</ele>
        <time>2017-06-17T07:29:56.296Z</time>
      </trkpt>
      <trkpt lat="45.01217" lon="5.75523">
        <ele>1172.68</ele>
        <time>2017-06-17T07:29:57.296Z</time>
      </trkpt>
      <trkpt lat="45.01213" lon="5.75524">
        <ele>1171.79</ele>
        <time>2017-06-17T07:29:58.295Z</time>
      </trkpt>
      <trkpt lat="45.01209" lon="5.75524">
        <ele>1170.6</ele>
        <time>2017-06-17T07:29:59.295Z</time>
      </trkpt>
      <trkpt lat="45.01206" lon="5.75525">
        <ele>1170</ele>
        <time>2017-06-17T07:30:00.293Z</time>
      </trkpt>
      <trkpt lat="45.01205" lon="5.75527">
        <ele>1169.47</ele>
        <time>2017-06-17T07:30:01.295Z</time>
      </trkpt>
      <trkpt lat="45.01206" lon="5.75532">
        <ele>1168.97</ele>
        <time>2017-06-17T07:30:02.295Z</time>
      </trkpt>
      <trkpt lat="45.01207" lon="5.75536">
        <ele>1168.54</ele>
        <time>2017-06-17T07:30:03.298Z</time>
      </trkpt>
      <trkpt lat="45.0121" lon="5.75542">
        <ele>1168.06</ele>
        <time>2017-06-17T07:30:04.503Z</time>
      </trkpt>
      <trkpt lat="45.01213" lon="5.75546">
        <ele>1167.42</ele>
        <time>2017-06-17T07:30:05.540Z</time>
      </trkpt>
      <trkpt lat="45.01215" lon="5.75549">
        <ele>1166.35</ele>
        <time>2017-06-17T07:30:06.534Z</time>
      </trkpt>
      <trkpt lat="45.01216" lon="5.75552">
        <ele>1165.71</ele>
        <time>2017-06-17T07:30:07.538Z</time>
      </trkpt>
      <trkpt lat="45.01218" lon="5.75556">
        <ele>1165.25</ele>
        <time>2017-06-17T07:30:08.510Z</time>
      </trkpt>
      <trkpt lat="45.01219" lon="5.75558">
        <ele>1164.99</ele>
        <time>2017-06-17T07:30:09.535Z</time>
      </trkpt>
      <trkpt lat="45.01218" lon="5.75562">
        <ele>1164.62</ele>
        <time>2017-06-17T07:30:10.521Z</time>
      </trkpt>
      <trkpt lat="45.01216" lon="5.75565">
        <ele>1163.86</ele>
        <time>2017-06-17T07:30:11.524Z</time>
      </trkpt>
      <trkpt lat="45.01212" lon="5.75566">
        <ele>1163.44</ele>
        <time>2017-06-17T07:30:12.533Z</time>
      </trkpt>
      <trkpt lat="45.01208" lon="5.75566">
        <ele>1162.96</ele>
        <time>2017-06-17T07:30:13.523Z</time>
      </trkpt>
      <trkpt lat="45.01203" lon="5.75566">
        <ele>1162.39</ele>
        <time>2017-06-17T07:30:14.523Z</time>
      </trkpt>
      <trkpt lat="45.01199" lon="5.75566">
        <ele>1161.57</ele>
        <time>2017-06-17T07:30:15.526Z</time>
      </trkpt>
    </trkseg>
  </trk>
</gpx>